Time;durP1;ratioP1;P1;durP2;ratioP2;P2;SDS_P1;SDS_P2;PMS_P1;PMS_P2;Temp;Humidity;BMP_temperature;BMP_pressure;BME280_temperature;BME280_humidity;BME280_pressure;Samples;Min_cycle;Max_cycle;Signal;HPM_P1;HPM_P2
2022/01/08 00:01:25;;;;;;;;;;;;;;;3.72;100.00;98366.78;6180603;23;19916;-64
2022/01/08 00:03:51;;;;;;;;;;;;;;;3.89;100.00;98371.63;6181547;23;19908;-63
2022/01/08 00:06:17;;;;;;;;;;;;;;;3.22;100.00;98378.50;6181685;23;20318;-64
2022/01/08 00:08:42;;;;;;;;;;;;;;;2.64;100.00;98374.06;6181306;23;19908;-63
2022/01/08 00:11:09;;;;;;;;;;;;;;;2.91;100.00;98376.28;6181878;23;19908;-63
2022/01/08 00:13:37;;;;;;;;;;;;;;;2.86;100.00;98380.59;6181845;23;20035;-63
2022/01/08 00:16:02;;;;;;;;;;;;;;;3.44;100.00;98393.47;6181614;23;19917;-64
2022/01/08 00:18:28;;;;;;;;;;;;;;;3.70;100.00;98386.34;6180424;23;19936;-63
2022/01/08 00:20:54;;;;;;;;;;;;;;;3.74;100.00;98387.97;6182386;23;19908;-64
2022/01/08 00:23:19;;;;;;;;;;;;;;;3.67;100.00;98386.38;6181705;23;19923;-64
2022/01/08 00:25:45;;;;;;;;;;;;;;;3.96;100.00;98367.25;6182064;23;19935;-64
2022/01/08 00:28:10;;;;;;;;;;;;;;;3.55;100.00;98371.25;6181818;23;20206;-64
2022/01/08 00:30:35;;;;;;;;;;;;;;;3.65;100.00;98367.75;6182217;23;19931;-64
2022/01/08 00:33:01;;;;;;;;;;;;;;;3.76;100.00;98368.44;6180058;23;20015;-64
2022/01/08 00:35:27;;;;;;;;;;;;;;;4.02;100.00;98359.53;6181716;23;19971;-61
2022/01/08 00:37:52;;;;;;;;;;;;;;;3.43;100.00;98374.00;6182390;23;19912;-64
2022/01/08 00:40:17;;;;;;;;;;;;;;;3.91;100.00;98366.50;6181979;23;20589;-63
2022/01/08 00:42:43;;;;;;;;;;;;;;;3.45;100.00;98374.81;6182685;23;19959;-64
2022/01/08 00:45:08;;;;;;;;;;;;;;;3.26;100.00;98377.59;6181978;23;20307;-64
2022/01/08 00:47:34;;;;;;;;;;;;;;;3.86;100.00;98381.03;6182494;23;20256;-64
2022/01/08 00:49:59;;;;;;;;;;;;;;;3.69;100.00;98384.63;6183551;23;20295;-64
2022/01/08 00:52:25;;;;;;;;;;;;;;;3.92;100.00;98388.56;6183407;23;19912;-64
2022/01/08 00:54:50;;;;;;;;;;;;;;;3.83;100.00;98386.13;6183224;23;20240;-63
2022/01/08 00:57:15;;;;;;;;;;;;;;;3.75;100.00;98384.56;6172704;23;19944;-65
2022/01/08 00:59:41;;;;;;;;;;;;;;;4.06;100.00;98379.00;6177427;23;19975;-66
2022/01/08 01:02:06;;;;;;;;;;;;;;;4.13;100.00;98385.69;6178009;23;19916;-64
2022/01/08 01:04:31;;;;;;;;;;;;;;;4.25;100.00;98378.72;6178126;23;19935;-66
2022/01/08 01:06:57;;;;;;;;;;;;;;;4.04;100.00;98374.78;6178501;23;19912;-66
2022/01/08 01:09:22;;;;;;;;;;;;;;;3.94;100.00;98374.09;6178747;23;19912;-66
2022/01/08 01:11:48;;;;;;;;;;;;;;;4.10;100.00;98377.25;6177979;23;20019;-66
2022/01/08 01:14:13;;;;;;;;;;;;;;;4.18;100.00;98367.78;6177782;23;19919;-66
2022/01/08 01:16:38;;;;;;;;;;;;;;;3.86;100.00;98360.66;6179844;23;19974;-66
2022/01/08 01:19:04;;;;;;;;;;;;;;;4.17;100.00;98372.03;6180614;23;19917;-66
2022/01/08 01:21:30;;;;;;;;;;;;;;;3.96;100.00;98367.25;6179657;23;19999;-66
2022/01/08 01:23:56;;;;;;;;;;;;;;;3.47;100.00;98373.09;6179148;23;19946;-67
2022/01/08 01:26:25;;;;;;;;;;;;;;;2.91;100.00;98381.38;6179234;23;19912;-65
2022/01/08 01:29:00;;;;;;;;;;;;;;;3.75;100.00;98383.72;6178376;23;19912;-66
2022/01/08 01:47:56;;;;;;;;;;;;;;;3.58;100.00;98390.75;6179740;23;19961;-66
2022/01/08 01:50:21;;;;;;;;;;;;;;;3.33;100.00;98381.75;6179524;23;19965;-66
2022/01/08 01:52:47;;;;;;;;;;;;;;;3.49;100.00;98391.69;6179408;23;20447;-66
2022/01/08 01:55:12;;;;;;;;;;;;;;;3.03;100.00;98384.66;6178842;23;19912;-66
2022/01/08 01:57:37;;;;;;;;;;;;;;;2.69;100.00;98382.47;6178631;23;20324;-66
2022/01/08 02:00:04;;;;;;;;;;;;;;;3.01;100.00;98389.78;6178776;23;19987;-66
2022/01/08 02:02:29;;;;;;;;;;;;;;;2.97;100.00;98392.38;6177547;23;20108;-66
2022/01/08 02:04:54;;;;;;;;;;;;;;;3.36;100.00;98393.59;6179403;23;20026;-66
2022/01/08 02:07:23;;;;;;;;;;;;;;;3.16;100.00;98393.81;6178529;23;20299;-66
2022/01/08 02:09:49;;;;;;;;;;;;;;;2.61;100.00;98391.88;6179089;23;20043;-66
2022/01/08 02:12:17;;;;;;;;;;;;;;;2.85;100.00;98394.19;6177261;23;19943;-66
2022/01/08 02:14:43;;;;;;;;;;;;;;;2.76;100.00;98396.81;6178281;23;19923;-66
2022/01/08 02:17:08;;;;;;;;;;;;;;;2.83;100.00;98405.19;6176501;23;19916;-66
2022/01/08 02:19:34;;;;;;;;;;;;;;;2.54;100.00;98397.91;6177669;23;19912;-66
2022/01/08 02:22:00;;;;;;;;;;;;;;;2.43;100.00;98401.38;6178824;23;20464;-66
2022/01/08 02:24:25;;;;;;;;;;;;;;;2.74;100.00;98406.16;6178951;23;19915;-66
2022/01/08 02:26:51;;;;;;;;;;;;;;;2.63;100.00;98407.97;6178979;23;19908;-66
2022/01/08 02:29:17;;;;;;;;;;;;;;;2.76;100.00;98423.94;6178455;23;19928;-66
2022/01/08 02:31:57;;;;;;;;;;;;;;;2.86;100.00;98420.44;6178132;23;19987;-66
2022/01/08 02:34:22;;;;;;;;;;;;;;;2.96;100.00;98421.19;6177413;23;19991;-66
2022/01/08 02:36:48;;;;;;;;;;;;;;;2.60;100.00;98423.22;6179034;23;20344;-66
2022/01/08 02:39:13;;;;;;;;;;;;;;;2.71;100.00;98426.53;6178741;23;19908;-66
2022/01/08 02:41:39;;;;;;;;;;;;;;;2.41;100.00;98428.47;6178596;23;19947;-66
2022/01/08 02:44:08;;;;;;;;;;;;;;;2.80;100.00;98430.69;6178518;23;19916;-66
2022/01/08 02:46:34;;;;;;;;;;;;;;;2.97;100.00;98431.34;6178422;23;19928;-66
2022/01/08 02:48:59;;;;;;;;;;;;;;;3.26;100.00;98428.50;6178907;23;20293;-66
2022/01/08 02:51:24;;;;;;;;;;;;;;;3.34;100.00;98424.13;6178436;23;20336;-66
2022/01/08 02:53:50;;;;;;;;;;;;;;;2.60;100.00;98428.31;6178926;23;20311;-66
2022/01/08 02:56:16;;;;;;;;;;;;;;;2.78;100.00;98417.97;6178551;23;20478;-66
2022/01/08 02:58:41;;;;;;;;;;;;;;;2.80;100.00;98421.34;6178253;23;19912;-66
2022/01/08 03:01:07;;;;;;;;;;;;;;;2.16;100.00;98429.53;6178287;23;19908;-66
2022/01/08 03:03:32;;;;;;;;;;;;;;;2.34;100.00;98426.84;6178814;23;20312;-66
2022/01/08 03:05:57;;;;;;;;;;;;;;;2.36;100.00;98425.16;6178677;23;19915;-66
2022/01/08 03:08:22;;;;;;;;;;;;;;;2.30;100.00;98428.59;6178184;23;20248;-66
2022/01/08 03:10:48;;;;;;;;;;;;;;;2.01;100.00;98428.81;6177944;23;20244;-65
2022/01/08 03:13:13;;;;;;;;;;;;;;;2.04;100.00;98428.78;6178478;23;20309;-64
2022/01/08 03:15:41;;;;;;;;;;;;;;;2.06;100.00;98421.16;6177783;23;19947;-66
2022/01/08 03:18:07;;;;;;;;;;;;;;;2.54;100.00;98413.16;6178699;23;19919;-66
2022/01/08 03:20:35;;;;;;;;;;;;;;;2.51;100.00;98422.47;6178401;23;20247;-65
2022/01/08 03:23:03;;;;;;;;;;;;;;;2.76;100.00;98424.78;6178835;23;19955;-66
2022/01/08 03:25:31;;;;;;;;;;;;;;;2.44;100.00;98427.59;6176396;23;19942;-66
2022/01/08 03:27:57;;;;;;;;;;;;;;;2.87;100.00;98423.00;6177920;23;19919;-66
2022/01/08 03:30:24;;;;;;;;;;;;;;;2.46;100.00;98421.69;6178191;23;19916;-65
2022/01/08 03:32:50;;;;;;;;;;;;;;;2.66;100.00;98413.84;6178025;23;19909;-66
2022/01/08 03:35:15;;;;;;;;;;;;;;;2.44;100.00;98405.59;6180029;23;19912;-64
2022/01/08 03:37:40;;;;;;;;;;;;;;;2.77;100.00;98406.13;6182541;23;19962;-64
2022/01/08 03:40:06;;;;;;;;;;;;;;;2.65;100.00;98407.09;6182706;23;20354;-64
2022/01/08 03:42:31;;;;;;;;;;;;;;;2.58;100.00;98399.53;6183008;23;19916;-65
2022/01/08 03:44:57;;;;;;;;;;;;;;;2.00;100.00;98405.94;6182922;23;20248;-64
2022/01/08 03:47:30;;;;;;;;;;;;;;;2.47;100.00;98405.56;6183301;23;19908;-64
2022/01/08 03:49:56;;;;;;;;;;;;;;;2.28;100.00;98406.56;6183181;23;19982;-65
2022/01/08 03:52:22;;;;;;;;;;;;;;;2.20;100.00;98408.34;6182891;23;20261;-64
2022/01/08 03:54:47;;;;;;;;;;;;;;;2.66;100.00;98402.84;6181607;23;19940;-64
2022/01/08 03:57:13;;;;;;;;;;;;;;;2.53;100.00;98397.03;6182990;23;19931;-65
2022/01/08 03:59:38;;;;;;;;;;;;;;;2.63;100.00;98410.50;6181275;23;19915;-65
2022/01/08 04:02:03;;;;;;;;;;;;;;;2.22;100.00;98417.63;6183124;23;19916;-65
2022/01/08 04:04:29;;;;;;;;;;;;;;;2.28;100.00;98422.69;6180821;23;19908;-65
2022/01/08 04:06:54;;;;;;;;;;;;;;;1.85;100.00;98428.06;6182852;23;19908;-65
2022/01/08 04:09:20;;;;;;;;;;;;;;;1.91;100.00;98434.78;6182556;23;19958;-63
2022/01/08 04:11:45;;;;;;;;;;;;;;;1.96;100.00;98443.22;6182608;23;19908;-64
2022/01/08 04:14:11;;;;;;;;;;;;;;;2.45;100.00;98449.63;6183032;23;19912;-64
2022/01/08 04:16:40;;;;;;;;;;;;;;;1.87;100.00;98456.81;6182359;23;19916;-63
2022/01/08 04:19:06;;;;;;;;;;;;;;;2.13;100.00;98449.88;6183069;23;19983;-65
2022/01/08 04:21:59;;;;;;;;;;;;;;;2.55;100.00;98447.84;6182697;23;20018;-64
2022/01/08 04:24:16;;;;;;;;;;;;;;;2.59;100.00;98455.44;6182568;23;19912;-64
2022/01/08 04:26:42;;;;;;;;;;;;;;;2.15;100.00;98450.72;6182505;23;20225;-64
2022/01/08 04:29:07;;;;;;;;;;;;;;;1.92;100.00;98468.66;6182544;23;19931;-64
2022/01/08 04:31:33;;;;;;;;;;;;;;;1.53;100.00;98471.38;6182847;23;19944;-64
2022/01/08 04:33:58;;;;;;;;;;;;;;;1.52;97.96;98479.81;6183845;23;20282;-63
2022/01/08 04:36:23;;;;;;;;;;;;;;;1.49;93.36;98484.09;6175045;23;19913;-65
2022/01/08 04:38:49;;;;;;;;;;;;;;;1.55;88.78;98487.44;6169845;23;19984;-68
2022/01/08 04:41:14;;;;;;;;;;;;;;;1.67;84.12;98487.38;6173151;23;19995;-66
2022/01/08 04:43:43;;;;;;;;;;;;;;;1.44;84.70;98496.78;6177674;23;19943;-66
2022/01/08 04:46:08;;;;;;;;;;;;;;;1.60;82.71;98502.66;6177912;23;19939;-66
2022/01/08 04:48:34;;;;;;;;;;;;;;;1.44;81.36;98512.00;6178317;23;19908;-66
2022/01/08 04:50:59;;;;;;;;;;;;;;;1.49;78.50;98512.84;6179600;23;20271;-65
2022/01/08 04:53:24;;;;;;;;;;;;;;;1.68;76.18;98508.53;6179868;23;19908;-65
2022/01/08 04:55:49;;;;;;;;;;;;;;;1.44;76.17;98517.94;6179920;23;20255;-65
2022/01/08 04:58:15;;;;;;;;;;;;;;;1.31;74.02;98526.41;6179385;23;20002;-66
2022/01/08 05:00:40;;;;;;;;;;;;;;;1.64;68.43;98530.56;6179420;23;19939;-66
2022/01/08 05:03:06;;;;;;;;;;;;;;;1.53;67.94;98531.41;6178757;23;19919;-65
2022/01/08 05:05:31;;;;;;;;;;;;;;;1.58;66.75;98540.72;6179361;23;19930;-65
2022/01/08 05:07:57;;;;;;;;;;;;;;;1.72;66.47;98542.38;6176902;23;19966;-65
2022/01/08 05:10:22;;;;;;;;;;;;;;;1.74;66.68;98541.50;6179468;23;19996;-66
2022/01/08 05:12:48;;;;;;;;;;;;;;;1.83;65.79;98546.53;6180320;23;19927;-66
2022/01/08 05:15:15;;;;;;;;;;;;;;;1.94;64.99;98548.19;6179671;23;19924;-66
2022/01/08 05:17:42;;;;;;;;;;;;;;;2.23;65.46;98548.88;6178990;23;19998;-66
2022/01/08 05:20:09;;;;;;;;;;;;;;;1.83;69.86;98551.63;6178772;23;20288;-66
2022/01/08 05:25:12;;;;;;;;;;;;;;;1.91;67.24;98554.13;6179852;23;19915;-66
2022/01/08 05:27:37;;;;;;;;;;;;;;;1.85;66.68;98546.56;6176791;23;19909;-66
2022/01/08 05:30:03;;;;;;;;;;;;;;;1.85;66.15;98561.78;6178902;23;19977;-66
2022/01/08 05:32:28;;;;;;;;;;;;;;;1.93;64.78;98557.50;6177307;23;19908;-66
2022/01/08 05:34:54;;;;;;;;;;;;;;;1.75;66.03;98560.94;6178836;23;19931;-66
2022/01/08 05:37:20;;;;;;;;;;;;;;;1.90;64.27;98556.69;6179281;23;20000;-66
2022/01/08 05:39:45;;;;;;;;;;;;;;;1.93;64.31;98562.56;6178462;23;19952;-66
2022/01/08 05:42:11;;;;;;;;;;;;;;;1.96;65.57;98572.75;6179123;23;19939;-65
2022/01/08 05:44:36;;;;;;;;;;;;;;;1.87;67.96;98572.75;6179757;23;20428;-65
2022/01/08 05:47:02;;;;;;;;;;;;;;;1.77;69.36;98574.50;6179531;23;19935;-66
2022/01/08 05:49:28;;;;;;;;;;;;;;;1.89;67.19;98576.13;6178713;23;20414;-65
2022/01/08 05:51:53;;;;;;;;;;;;;;;2.05;67.03;98571.81;6179566;23;19915;-65
2022/01/08 05:54:18;;;;;;;;;;;;;;;1.83;70.71;98566.03;6179071;23;19991;-66
2022/01/08 05:56:44;;;;;;;;;;;;;;;1.59;71.04;98565.22;6178915;23;20300;-66
2022/01/08 05:59:09;;;;;;;;;;;;;;;1.49;69.55;98565.28;6179049;23;19908;-66
2022/01/08 06:01:34;;;;;;;;;;;;;;;1.58;69.47;98577.94;6178986;23;19997;-66
2022/01/08 06:04:03;;;;;;;;;;;;;;;1.60;68.38;98572.03;6179575;23;19908;-66
2022/01/08 06:06:28;;;;;;;;;;;;;;;1.53;66.81;98564.41;6178953;23;19913;-65
2022/01/08 06:08:53;;;;;;;;;;;;;;;1.54;67.14;98568.66;6178876;23;19971;-66
2022/01/08 06:11:19;;;;;;;;;;;;;;;1.92;66.20;98568.53;6177335;23;19908;-65
2022/01/08 06:13:44;;;;;;;;;;;;;;;2.11;68.02;98565.91;6178701;23;19915;-66
2022/01/08 06:16:10;;;;;;;;;;;;;;;1.97;71.87;98566.78;6177792;23;19995;-66
2022/01/08 06:18:35;;;;;;;;;;;;;;;2.18;71.42;98562.47;6178028;23;20562;-65
2022/01/08 06:21:01;;;;;;;;;;;;;;;2.17;74.17;98565.88;6178623;23;19916;-66
2022/01/08 06:23:27;;;;;;;;;;;;;;;1.90;79.27;98562.59;6178802;23;20296;-66
2022/01/08 06:25:52;;;;;;;;;;;;;;;2.11;77.79;98550.66;6179417;23;20598;-66
2022/01/08 06:28:17;;;;;;;;;;;;;;;1.79;80.24;98564.34;6178707;23;19908;-65
2022/01/08 06:30:43;;;;;;;;;;;;;;;2.04;78.05;98555.75;6178469;23;19908;-65
2022/01/08 06:33:08;;;;;;;;;;;;;;;1.96;79.57;98552.44;6178268;23;19908;-65
2022/01/08 06:35:33;;;;;;;;;;;;;;;1.24;83.97;98550.94;6178267;23;19939;-66
2022/01/08 06:37:59;;;;;;;;;;;;;;;1.44;79.61;98557.69;6178110;23;19908;-66
2022/01/08 06:40:24;;;;;;;;;;;;;;;1.59;78.06;98552.53;6178361;23;19915;-66
2022/01/08 06:42:49;;;;;;;;;;;;;;;1.59;78.61;98555.09;6178779;23;19955;-66
2022/01/08 06:45:15;;;;;;;;;;;;;;;1.14;79.45;98564.50;6179072;23;19942;-66
2022/01/08 06:47:42;;;;;;;;;;;;;;;1.34;76.58;98561.91;6178124;23;19913;-66
2022/01/08 06:50:07;;;;;;;;;;;;;;;1.93;73.34;98559.19;6179053;23;19908;-66
2022/01/08 06:52:33;;;;;;;;;;;;;;;1.98;76.10;98560.84;6176820;23;20312;-66
2022/01/08 06:54:59;;;;;;;;;;;;;;;1.70;78.46;98564.38;6178765;23;19919;-66
2022/01/08 06:57:24;;;;;;;;;;;;;;;1.37;77.57;98573.75;6177924;23;19919;-66
2022/01/08 08:53:13;;;;;;;;;;;;;;;2.17;91.94;98565.88;6180119;23;20767;-65
2022/01/08 08:55:38;;;;;;;;;;;;;;;2.26;95.64;98564.13;6158805;23;19924;-63
2022/01/08 08:58:07;;;;;;;;;;;;;;;2.39;96.13;98567.41;6155276;23;20272;-64
2022/01/08 09:00:35;;;;;;;;;;;;;;;2.67;98.23;98562.16;6129384;23;19916;-63
2022/01/08 09:03:10;;;;;;;;;;;;;;;2.15;100.00;98558.25;6153583;23;19983;-63
2022/01/08 11:15:51;;;;;;;;;;;;;;;3.58;100.00;98426.38;6179394;23;19928;-65
2022/01/08 11:18:17;;;;;;;;;;;;;;;3.85;100.00;98407.34;6181633;23;19998;-65
2022/01/08 11:20:43;;;;;;;;;;;;;;;3.55;100.00;98410.28;6184150;23;19909;-64
2022/01/08 11:23:09;;;;;;;;;;;;;;;3.81;100.00;98403.16;6183187;23;19915;-64
2022/01/08 11:25:35;;;;;;;;;;;;;;;3.27;100.00;98397.09;6156767;23;20251;-64
2022/01/08 11:34:24;;;;;;;;;;;;;;;3.56;100.00;98383.97;6182868;23;19983;-65
2022/01/08 11:43:26;;;;;;;;;;;;;;;4.07;100.00;98355.19;6181229;23;20366;-63
2022/01/08 11:58:23;;;;;;;;;;;;;;;3.99;100.00;98326.44;6182353;23;19935;-65
2022/01/08 12:00:59;;;;;;;;;;;;;;;4.14;100.00;98326.19;6156966;23;20375;-65
2022/01/08 12:03:31;;;;;;;;;;;;;;;3.62;100.00;98327.03;6182646;23;20283;-65
2022/01/08 12:05:57;;;;;;;;;;;;;;;3.85;100.00;98324.13;6181820;23;19916;-65
